createdAt,value
2023-04-11T00:01:46.873Z,100207.84
2023-04-11T00:04:15.373Z,100159.19
2023-04-11T00:06:43.856Z,100235.28
2023-04-11T00:09:13.174Z,100235.97
2023-04-11T00:11:41.240Z,100225.25
2023-04-11T00:14:10.963Z,100072.00
2023-04-11T00:16:39.694Z,100218.19
2023-04-11T00:19:09.654Z,100202.13
2023-04-11T00:21:40.221Z,100196.09
2023-04-11T00:24:09.012Z,100195.09
2023-04-11T00:26:37.077Z,100191.41
2023-04-11T00:29:05.216Z,100182.72
2023-04-11T00:31:34.697Z,100180.69
2023-04-11T00:34:02.801Z,100170.00
2023-04-11T00:36:31.969Z,100169.16
2023-04-11T00:39:01.385Z,100154.78
2023-04-11T00:41:29.476Z,100160.97
2023-04-11T00:43:57.776Z,100054.47
2023-04-11T00:46:26.505Z,100143.22
2023-04-11T00:48:56.145Z,100141.53
2023-04-11T00:51:24.446Z,100130.81
2023-04-11T00:53:52.588Z,100137.84
2023-04-11T00:56:20.907Z,100121.78
2023-04-11T00:58:49.519Z,100121.78
2023-04-11T01:01:20.048Z,100101.22
2023-04-11T01:03:48.444Z,100107.41
2023-04-11T01:06:21.052Z,100106.56
2023-04-11T01:08:49.252Z,100111.91
2023-04-11T01:11:20.303Z,100088.66
2023-04-11T01:13:49.535Z,100091.34
2023-04-11T01:16:21.530Z,100078.94
2023-04-11T01:18:49.997Z,100073.56
2023-04-11T01:21:20.919Z,100078.09
2023-04-11T01:23:52.767Z,100073.56
2023-04-11T01:26:21.197Z,100065.53
2023-04-11T01:28:49.296Z,100055.81
2023-04-11T01:31:17.483Z,100046.78
2023-04-11T01:33:45.899Z,100036.06
2023-04-11T01:36:14.223Z,100036.06
2023-04-11T01:38:42.427Z,100036.94
2023-04-11T01:41:12.118Z,100015.25
2023-04-11T01:43:40.467Z,100015.50
2023-04-11T01:46:09.670Z,100001.25
2023-04-11T01:48:38.671Z,100008.31
2023-04-11T01:51:07.731Z,100005.66
2023-04-11T01:53:35.839Z,100005.66
2023-04-11T01:56:03.970Z,99998.59
2023-04-11T01:58:33.473Z,99982.50
2023-04-11T02:01:01.949Z,99997.59
2023-04-11T02:03:30.350Z,99967.31
2023-04-11T02:05:58.723Z,99988.72
2023-04-11T02:08:26.929Z,99980.84
2023-04-11T02:10:55.030Z,99978.88
2023-04-11T02:13:23.180Z,99977.16
2023-04-11T02:15:52.810Z,99907.47
2023-04-11T02:18:21.111Z,99972.66
2023-04-11T02:20:50.257Z,99968.16
2023-04-11T02:23:18.358Z,99957.75
2023-04-11T02:25:46.385Z,99953.75
2023-04-11T02:28:14.412Z,99948.72
2023-04-11T02:30:42.441Z,99943.34
2023-04-11T02:33:12.073Z,99934.31
2023-04-11T02:35:40.096Z,99940.53
2023-04-11T02:38:08.247Z,99937.00
2023-04-11T02:40:36.265Z,99856.78
2023-04-11T02:43:04.274Z,99923.59
2023-04-11T02:45:32.499Z,99922.78
2023-04-11T02:48:00.803Z,99920.91
2023-04-11T02:50:30.227Z,99843.63
2023-04-11T02:52:58.315Z,99903.03
2023-04-11T02:55:27.155Z,99898.53
2023-04-11T02:57:55.378Z,99896.16
2023-04-11T03:00:23.416Z,99895.00
2023-04-11T03:02:51.569Z,99891.47
2023-04-11T03:05:20.767Z,99887.81
2023-04-11T03:07:50.200Z,99879.38
2023-04-11T03:10:18.315Z,99763.63
2023-04-11T03:12:46.356Z,99877.09
2023-04-11T03:15:15.673Z,99866.38
2023-04-11T03:17:43.781Z,99869.06
2023-04-11T03:20:13.780Z,99870.03
2023-04-11T03:22:41.918Z,99859.31
2023-04-11T03:25:11.682Z,99861.03
2023-04-11T03:27:39.688Z,99860.19
2023-04-11T03:30:09.150Z,99828.13
2023-04-11T03:32:37.273Z,99853.97
2023-04-11T03:35:05.751Z,99843.25
2023-04-11T03:37:33.823Z,99837.91
2023-04-11T03:40:01.862Z,99840.72
2023-04-11T03:42:31.341Z,99813.81
2023-04-11T03:44:59.355Z,99811.13
2023-04-11T03:47:27.426Z,99819.00
2023-04-11T03:49:55.459Z,99819.84
2023-04-11T03:52:24.161Z,99828.91
2023-04-11T03:54:52.144Z,99812.81
2023-04-11T03:57:20.161Z,99810.97
2023-04-11T03:59:49.522Z,99814.50
2023-04-11T04:02:17.715Z,99808.44
2023-04-11T04:04:48.775Z,99806.78
2023-04-11T04:07:18.164Z,99798.44
2023-04-11T04:09:46.276Z,99803.09
2023-04-11T04:12:14.323Z,99802.94
2023-04-11T04:14:42.321Z,99807.47
2023-04-11T04:17:13.510Z,99803.78
2023-04-11T04:19:41.804Z,99801.09
2023-04-11T04:22:12.324Z,99776.28
2023-04-11T04:24:42.208Z,99778.81
2023-04-11T04:27:10.518Z,99782.34
2023-04-11T04:29:39.581Z,99782.34
2023-04-11T04:32:11.383Z,99700.06
2023-04-11T04:34:46.894Z,99780.69
2023-04-11T04:37:21.968Z,99778.81
2023-04-11T04:39:54.201Z,99772.97
2023-04-11T04:42:23.981Z,99704.25
2023-04-11T04:44:52.804Z,99769.97
2023-04-11T04:47:22.731Z,99769.97
2023-04-11T04:49:56.358Z,99650.47
2023-04-11T04:52:25.761Z,99769.13
2023-04-11T04:54:58.051Z,99762.91
2023-04-11T04:57:27.209Z,99696.91
2023-04-11T04:59:55.726Z,99761.25
2023-04-11T05:02:25.557Z,99617.13
2023-04-11T05:04:55.980Z,99763.63
2023-04-11T05:07:24.133Z,99757.56
2023-04-11T05:09:52.241Z,99752.91
2023-04-11T05:12:26.506Z,99745.19
2023-04-11T05:14:56.832Z,99740.53
2023-04-11T05:17:25.597Z,99710.59
2023-04-11T05:19:55.709Z,99742.34
2023-04-11T05:22:23.853Z,99744.88
2023-04-11T05:24:51.946Z,99733.31
2023-04-11T05:27:19.999Z,99737.84
2023-04-11T05:29:48.051Z,99744.88
2023-04-11T05:32:16.073Z,99744.88
2023-04-11T05:34:57.267Z,99598.41
2023-04-11T05:37:26.695Z,99593.75
2023-04-11T05:39:56.405Z,99579.69
2023-04-11T05:42:24.589Z,99710.63
2023-04-11T05:44:52.652Z,99736.69
2023-04-11T05:47:20.741Z,99736.84
2023-04-11T05:49:49.618Z,99657.47
2023-04-11T05:52:19.156Z,99722.59
2023-04-11T05:54:47.454Z,99721.78
2023-04-11T05:57:17.628Z,99720.22
2023-04-11T05:59:49.823Z,99721.78
2023-04-11T06:02:18.255Z,99720.94
2023-04-11T06:04:46.638Z,99716.41
2023-04-11T06:07:14.789Z,99719.09
2023-04-11T06:09:44.391Z,99716.41
2023-04-11T06:12:12.612Z,99729.81
2023-04-11T06:14:41.038Z,99727.13
2023-04-11T06:17:09.657Z,99730.47
2023-04-11T06:19:38.342Z,99725.13
2023-04-11T06:22:06.806Z,99725.13
2023-04-11T06:24:38.464Z,99723.44
2023-04-11T06:27:10.376Z,99711.88
2023-04-11T06:29:38.580Z,99712.72
2023-04-11T06:32:07.186Z,99714.56
2023-04-11T06:34:35.762Z,99715.41
2023-04-11T06:37:03.993Z,99711.06
2023-04-11T06:39:32.155Z,99723.44
2023-04-11T06:42:00.664Z,99720.75
2023-04-11T06:44:30.444Z,99717.06
2023-04-11T06:46:59.410Z,99725.13
2023-04-11T06:49:28.392Z,99711.06
2023-04-11T06:51:56.773Z,99639.50
2023-04-11T06:54:24.985Z,99717.06
2023-04-11T06:56:53.403Z,99709.38
2023-04-11T06:59:22.383Z,99707.38
2023-04-11T07:01:53.080Z,99705.72
2023-04-11T07:04:23.860Z,99707.38
2023-04-11T07:06:52.126Z,99706.53
2023-04-11T07:09:20.222Z,99705.72
2023-04-11T07:11:48.339Z,99700.34
2023-04-11T07:14:16.735Z,99717.22
2023-04-11T07:16:44.988Z,99712.72
2023-04-11T07:19:14.817Z,99716.41
2023-04-11T07:21:42.949Z,99721.78
2023-04-11T07:24:13.312Z,99720.06
2023-04-11T07:26:42.510Z,99721.78
2023-04-11T07:29:13.130Z,99630.16
2023-04-11T07:31:45.036Z,99642.53
2023-04-11T07:34:14.750Z,99711.06
2023-04-11T07:36:42.880Z,99711.06
2023-04-11T07:39:12.371Z,99712.88
2023-04-11T07:41:40.569Z,99708.53
2023-04-11T07:44:09.708Z,99710.22
2023-04-11T07:46:37.904Z,99555.25
2023-04-11T07:49:06.291Z,99700.34
2023-04-11T07:51:35.798Z,99711.06
2023-04-11T07:54:04.052Z,99650.09
2023-04-11T07:56:32.208Z,99719.75
2023-04-11T07:59:01.442Z,99707.38
2023-04-11T08:01:29.725Z,99713.59
2023-04-11T08:03:58.788Z,99712.72
2023-04-11T08:06:29.150Z,99718.94
2023-04-11T08:09:01.112Z,99584.41
2023-04-11T08:11:29.421Z,99714.41
2023-04-11T08:13:57.762Z,99711.72
2023-04-11T08:16:26.183Z,99671.75
2023-04-11T08:18:54.352Z,99703.69
2023-04-11T08:21:23.798Z,99702.03
2023-04-11T08:23:51.904Z,99606.66
2023-04-11T08:26:21.394Z,99705.72
2023-04-11T08:28:49.673Z,99702.03
2023-04-11T08:31:17.989Z,99696.66
2023-04-11T08:33:46.292Z,99625.66
2023-04-11T08:36:14.701Z,99698.66
2023-04-11T08:38:42.967Z,99633.22
2023-04-11T08:41:11.119Z,99636.56
2023-04-11T08:43:47.049Z,99701.81
2023-04-11T08:46:15.453Z,99702.03
2023-04-11T08:48:45.606Z,99702.03
2023-04-11T08:51:18.492Z,99703.69
2023-04-11T08:53:47.072Z,99702.03
2023-04-11T08:56:20.157Z,99698.34
2023-04-11T08:58:51.055Z,99696.66
2023-04-11T09:01:30.463Z,99624.81
2023-04-11T09:04:02.312Z,99715.72
2023-04-11T09:06:31.379Z,99697.66
2023-04-11T09:09:00.920Z,99631.31
2023-04-11T09:11:29.974Z,99699.34
2023-04-11T09:14:09.243Z,99563.31
2023-04-11T09:16:42.277Z,99704.00
2023-04-11T09:19:25.343Z,99696.66
2023-04-11T09:22:00.444Z,99702.03
2023-04-11T09:24:29.695Z,99696.66
2023-04-11T09:27:11.901Z,99691.63
2023-04-11T09:29:45.821Z,99688.78
2023-04-11T09:32:32.438Z,99540.59
2023-04-11T09:35:15.825Z,99662.59
2023-04-11T09:37:55.766Z,99684.59
2023-04-11T09:40:25.893Z,99682.59
2023-04-11T09:43:00.853Z,99684.28
2023-04-11T09:45:38.337Z,99612.44
2023-04-11T09:48:16.945Z,99683.44
2023-04-11T09:50:45.692Z,99626.47
2023-04-11T09:53:17.463Z,99698.66
2023-04-11T09:55:46.017Z,99699.50
2023-04-11T09:58:14.568Z,99700.34
2023-04-11T10:00:46.054Z,99629.16
2023-04-11T10:03:20.291Z,99706.34
2023-04-11T10:05:49.988Z,99712.72
2023-04-11T10:08:28.533Z,99718.09
2023-04-11T10:10:56.996Z,99639.84
2023-04-11T10:13:50.390Z,99712.72
2023-04-11T10:16:23.407Z,99711.06
2023-04-11T10:19:25.263Z,99704.00
2023-04-11T10:21:54.255Z,99708.16
2023-04-11T10:24:24.040Z,99709.69
2023-04-11T10:26:53.676Z,99715.56
2023-04-11T10:29:49.237Z,99711.06
2023-04-11T10:32:26.662Z,99639.84
2023-04-11T10:35:31.256Z,99710.22
2023-04-11T10:37:59.869Z,99643.06
2023-04-11T10:40:28.083Z,99720.94
2023-04-11T10:42:57.505Z,99725.44
2023-04-11T10:45:27.339Z,99721.78
2023-04-11T10:48:10.597Z,99648.75
2023-04-11T10:50:45.434Z,99727.13
2023-04-11T10:53:41.148Z,99727.94
2023-04-11T10:56:09.601Z,99733.31
2023-04-11T10:58:40.397Z,99737.84
2023-04-11T11:01:32.385Z,99735.16
2023-04-11T11:04:08.093Z,99736.13
2023-04-11T11:06:46.880Z,99660.22
2023-04-11T11:09:23.738Z,99674.66
2023-04-11T11:12:06.971Z,99746.03
2023-04-11T11:14:35.817Z,99738.16
2023-04-11T11:17:04.964Z,99593.38
2023-04-11T11:19:35.710Z,99741.50
2023-04-11T11:22:05.105Z,99738.81
2023-04-11T11:24:33.688Z,99742.81
2023-04-11T11:27:02.147Z,99655.19
2023-04-11T11:29:36.172Z,99755.56
2023-04-11T11:32:05.035Z,99760.94
2023-04-11T11:34:39.324Z,99756.59
2023-04-11T11:37:07.903Z,99760.09
2023-04-11T11:39:36.567Z,99769.97
2023-04-11T11:42:04.891Z,99699.44
2023-04-11T11:44:34.229Z,99771.66
2023-04-11T11:47:03.245Z,99769.13
2023-04-11T11:49:46.831Z,99778.66
2023-04-11T11:52:31.879Z,99633.69
2023-04-11T11:55:00.392Z,99765.59
2023-04-11T11:57:28.924Z,99772.66
2023-04-11T11:59:57.641Z,99779.69
2023-04-11T12:02:30.534Z,99787.72
2023-04-11T12:05:01.800Z,99739.28
2023-04-11T12:07:35.897Z,99797.41
2023-04-11T12:10:08.270Z,99784.34
2023-04-11T12:12:37.619Z,99794.75
2023-04-11T12:15:11.824Z,99722.19
2023-04-11T12:17:40.989Z,99793.06
2023-04-11T12:20:12.954Z,99798.44
2023-04-11T12:22:41.179Z,99804.63
2023-04-11T12:25:10.798Z,99810.81
2023-04-11T12:27:40.050Z,99800.94
2023-04-11T12:30:09.563Z,99683.09
2023-04-11T12:32:38.189Z,99802.78
2023-04-11T12:35:07.768Z,99807.97
2023-04-11T12:37:37.410Z,99814.19
2023-04-11T12:40:13.075Z,99810.81
2023-04-11T12:42:53.605Z,99808.97
2023-04-11T12:45:26.747Z,99673.97
2023-04-11T12:47:55.029Z,99680.69
2023-04-11T12:50:24.599Z,99826.06
2023-04-11T12:52:55.688Z,99830.56
2023-04-11T12:55:24.996Z,99830.56
2023-04-11T12:57:53.357Z,99831.41
2023-04-11T13:00:22.190Z,99826.88
2023-04-11T13:02:50.592Z,99768.38
2023-04-11T13:05:19.432Z,99833.94
2023-04-11T13:07:47.589Z,99833.94
2023-04-11T13:10:17.443Z,99832.22
2023-04-11T13:12:46.570Z,99836.63
2023-04-11T13:15:16.262Z,99840.09
2023-04-11T13:17:44.703Z,99844.66
2023-04-11T13:20:13.814Z,99833.94
2023-04-11T13:22:42.544Z,99839.28
2023-04-11T13:25:12.325Z,99844.66
2023-04-11T13:27:42.356Z,99841.97
2023-04-11T13:30:12.092Z,99849.16
2023-04-11T13:32:40.452Z,99856.19
2023-04-11T13:35:09.753Z,99735.47
2023-04-11T13:37:37.935Z,99856.34
2023-04-11T13:40:08.460Z,99780.00
2023-04-11T13:42:36.648Z,99866.06
2023-04-11T13:45:06.909Z,99866.06
2023-04-11T13:47:38.934Z,99860.72
2023-04-11T13:50:09.287Z,99790.41
2023-04-11T13:52:37.682Z,99720.03
2023-04-11T13:55:06.892Z,99872.56
2023-04-11T13:57:34.963Z,99879.47
2023-04-11T14:00:05.489Z,99882.13
2023-04-11T14:02:35.245Z,99883.13
2023-04-11T14:05:03.559Z,99799.28
2023-04-11T14:07:32.012Z,99892.84
2023-04-11T14:10:00.163Z,99879.94
2023-04-11T14:12:28.591Z,99818.84
2023-04-11T14:14:56.665Z,99887.81
2023-04-11T14:17:24.901Z,99894.53
2023-04-11T14:19:54.980Z,99899.03
2023-04-11T14:22:23.259Z,99906.25
2023-04-11T14:24:52.451Z,99829.56
2023-04-11T14:27:20.540Z,99903.56
2023-04-11T14:29:48.607Z,99824.81
2023-04-11T14:32:18.292Z,99839.94
2023-04-11T14:34:47.045Z,99890.41
2023-04-11T14:37:16.751Z,99907.53
2023-04-11T14:39:44.838Z,99914.28
2023-04-11T14:42:17.688Z,99927.81
2023-04-11T14:44:46.010Z,99921.63
2023-04-11T14:47:14.364Z,99852.28
2023-04-11T14:49:44.624Z,99917.94
2023-04-11T14:52:13.878Z,99925.00
2023-04-11T14:54:43.534Z,99928.66
2023-04-11T14:57:12.203Z,99930.34
2023-04-11T14:59:43.253Z,99933.03
2023-04-11T15:02:18.632Z,99780.94
2023-04-11T15:04:47.233Z,99872.38
2023-04-11T15:07:16.383Z,99928.97
2023-04-11T15:09:46.332Z,99946.41
2023-04-11T15:12:14.840Z,99892.00
2023-04-11T15:14:43.828Z,99942.03
2023-04-11T15:17:14.257Z,99841.28
2023-04-11T15:19:42.413Z,99867.94
2023-04-11T15:22:20.087Z,99951.78
2023-04-11T15:24:49.775Z,99951.78
2023-04-11T15:27:18.452Z,99962.50
2023-04-11T15:29:46.585Z,99951.78
2023-04-11T15:32:14.902Z,99957.13
2023-04-11T15:34:43.195Z,99807.69
2023-04-11T15:37:13.718Z,99958.81
2023-04-11T15:39:46.713Z,99964.31
2023-04-11T15:42:16.709Z,99962.50
2023-04-11T15:44:46.308Z,99966.13
2023-04-11T15:47:14.577Z,99973.19
2023-04-11T15:49:42.756Z,99974.88
2023-04-11T15:52:11.740Z,99953.75
2023-04-11T15:54:39.881Z,99954.44
2023-04-11T15:57:08.023Z,99889.44
2023-04-11T15:59:40.627Z,99950.06
2023-04-11T16:02:08.956Z,99959.13
2023-04-11T16:04:39.217Z,99951.53
2023-04-11T16:07:07.698Z,99962.78
2023-04-11T16:09:35.909Z,99957.44
2023-04-11T16:12:04.578Z,99963.78
2023-04-11T16:14:32.962Z,99959.41
2023-04-11T16:17:05.786Z,99963.78
2023-04-11T16:19:34.050Z,99960.13
2023-04-11T16:22:02.182Z,99961.09
2023-04-11T16:24:31.209Z,99968.16
2023-04-11T16:26:59.454Z,99967.16
2023-04-11T16:29:27.683Z,99969.97
2023-04-11T16:31:55.926Z,99982.22
2023-04-11T16:34:25.558Z,99984.22
2023-04-11T16:36:53.806Z,99982.22
2023-04-11T16:39:22.009Z,99987.56
2023-04-11T16:41:50.287Z,99985.91
2023-04-11T16:44:18.547Z,99985.91
2023-04-11T16:46:46.797Z,99968.38
2023-04-11T16:49:16.453Z,99907.09
2023-04-11T16:51:46.049Z,99994.63
2023-04-11T16:54:15.186Z,99992.91
2023-04-11T16:56:43.328Z,99910.75
2023-04-11T16:59:12.394Z,99926.28
2023-04-11T17:01:43.707Z,100002.66
2023-04-11T17:04:12.912Z,99907.41
2023-04-11T17:06:41.549Z,99986.50
2023-04-11T17:09:11.327Z,100001.81
2023-04-11T17:11:39.689Z,100012.69
2023-04-11T17:14:07.963Z,100012.97
2023-04-11T17:16:37.726Z,100012.97
2023-04-11T17:19:06.305Z,100007.31
2023-04-11T17:21:34.517Z,100022.38
2023-04-11T17:24:02.636Z,100018.88
2023-04-11T17:26:32.161Z,100016.34
2023-04-11T17:29:00.427Z,100025.06
2023-04-11T17:31:29.434Z,100030.41
2023-04-11T17:33:57.799Z,100024.25
2023-04-11T17:36:26.201Z,100026.78
2023-04-11T17:38:55.047Z,100027.88
2023-04-11T17:41:23.320Z,99973.78
2023-04-11T17:43:58.284Z,100047.34
2023-04-11T17:46:28.469Z,100057.19
2023-04-11T17:48:57.185Z,99979.13
2023-04-11T17:51:27.583Z,100050.16
2023-04-11T17:53:56.864Z,100056.53
2023-04-11T17:56:25.663Z,100064.56
2023-04-11T17:58:56.330Z,100004.59
2023-04-11T18:01:29.471Z,100062.84
2023-04-11T18:03:57.894Z,100072.44
2023-04-11T18:06:28.107Z,100066.25
2023-04-11T18:08:56.769Z,100071.59
2023-04-11T18:11:25.160Z,100079.63
2023-04-11T18:13:54.969Z,100078.63
2023-04-11T18:16:23.535Z,100075.28
2023-04-11T18:18:51.572Z,100079.78
2023-04-11T18:21:21.982Z,100093.88
2023-04-11T18:23:50.538Z,100084.84
2023-04-11T18:26:18.677Z,100088.53
2023-04-11T18:28:46.774Z,100093.88
2023-04-11T18:31:16.608Z,100043.03
2023-04-11T18:33:46.822Z,100088.53
2023-04-11T18:36:15.934Z,100015.22
2023-04-11T18:38:44.317Z,100083.97
2023-04-11T18:41:12.523Z,100089.34
2023-04-11T18:43:40.975Z,100082.31
2023-04-11T18:46:09.728Z,100088.53
2023-04-11T18:48:39.593Z,100100.06
2023-04-11T18:51:07.821Z,100029.31
2023-04-11T18:53:36.821Z,100031.28
2023-04-11T18:56:05.250Z,100103.75
2023-04-11T18:58:35.196Z,100102.06
2023-04-11T19:01:15.658Z,100108.25
2023-04-11T19:03:47.013Z,100103.03
2023-04-11T19:06:15.683Z,100104.75
2023-04-11T19:08:43.853Z,100112.78
2023-04-11T19:11:12.060Z,100112.78
2023-04-11T19:13:41.124Z,100118.94
2023-04-11T19:16:09.517Z,100033.84
2023-04-11T19:18:37.692Z,100112.78
2023-04-11T19:21:07.856Z,100024.13
2023-04-11T19:23:36.043Z,100113.59
2023-04-11T19:26:04.226Z,100112.78
2023-04-11T19:28:32.439Z,100111.06
2023-04-11T19:31:00.654Z,100112.78
2023-04-11T19:33:29.381Z,100132.50
2023-04-11T19:35:57.657Z,100124.47
2023-04-11T19:38:27.373Z,100126.16
2023-04-11T19:40:55.842Z,100110.28
2023-04-11T19:43:24.045Z,100130.53
2023-04-11T19:45:52.348Z,100135.88
2023-04-11T19:48:20.527Z,100131.53
2023-04-11T19:50:48.614Z,100054.66
2023-04-11T19:53:16.970Z,100059.72
2023-04-11T19:55:52.073Z,100135.88
2023-04-11T19:58:21.597Z,100136.88
2023-04-11T20:00:49.899Z,100128.84
2023-04-11T20:03:18.310Z,100135.16
2023-04-11T20:05:47.323Z,100143.22
2023-04-11T20:08:15.495Z,100042.38
2023-04-11T20:10:43.599Z,100075.09
2023-04-11T20:13:13.049Z,100149.41
2023-04-11T20:15:41.116Z,100148.56
2023-04-11T20:18:10.342Z,100150.28
2023-04-11T20:20:38.600Z,100149.41
2023-04-11T20:23:07.257Z,100147.75
2023-04-11T20:25:36.166Z,100153.91
2023-04-11T20:28:04.218Z,100153.91
2023-04-11T20:30:33.863Z,100148.56
2023-04-11T20:33:02.032Z,100153.91
2023-04-11T20:35:30.129Z,100149.41
2023-04-11T20:37:58.363Z,100136.19
2023-04-11T20:40:26.421Z,100147.88
2023-04-11T20:42:56.475Z,100155.94
2023-04-11T20:45:25.937Z,100145.22
2023-04-11T20:47:55.504Z,100157.59
2023-04-11T20:50:23.642Z,100153.91
2023-04-11T20:52:52.543Z,100150.88
2023-04-11T20:55:21.052Z,100153.91
2023-04-11T20:57:49.386Z,100145.22
2023-04-11T21:00:18.641Z,100148.56
2023-04-11T21:02:50.049Z,100148.56
2023-04-11T21:05:22.073Z,100147.75
2023-04-11T21:07:50.209Z,100147.75
2023-04-11T21:10:21.062Z,100153.91
2023-04-11T21:12:51.749Z,100157.59
2023-04-11T21:15:20.660Z,100162.97
2023-04-11T21:17:48.999Z,100157.91
2023-04-11T21:20:20.741Z,100157.59
2023-04-11T21:22:52.941Z,100151.16
2023-04-11T21:25:21.301Z,100159.56
2023-04-11T21:27:49.913Z,100159.28
2023-04-11T21:30:17.944Z,100162.97
2023-04-11T21:32:46.239Z,100102.84
2023-04-11T21:35:14.392Z,100160.97
2023-04-11T21:37:42.534Z,100172.66
2023-04-11T21:40:12.805Z,100167.75
2023-04-11T21:42:41.044Z,100172.00
2023-04-11T21:45:10.070Z,100176.34
2023-04-11T21:47:38.170Z,100175.34
2023-04-11T21:50:07.091Z,100185.22
2023-04-11T21:52:35.147Z,100174.66
2023-04-11T21:55:03.182Z,100185.22
2023-04-11T21:57:34.850Z,100180.03
2023-04-11T22:00:03.781Z,100178.16
2023-04-11T22:02:32.044Z,100114.13
2023-04-11T22:05:06.612Z,100186.06
2023-04-11T22:07:39.544Z,100197.78
2023-04-11T22:10:11.738Z,100195.09
2023-04-11T22:12:45.765Z,100189.75
2023-04-11T22:15:14.221Z,100196.09
2023-04-11T22:17:43.801Z,100198.78
2023-04-11T22:20:13.032Z,100199.59
2023-04-11T22:22:42.149Z,100193.41
2023-04-11T22:25:11.719Z,100197.06
2023-04-11T22:27:41.278Z,100200.44
2023-04-11T22:30:11.203Z,100189.19
2023-04-11T22:32:39.438Z,100199.59
2023-04-11T22:35:08.384Z,100198.78
2023-04-11T22:37:36.552Z,100195.38
2023-04-11T22:40:06.279Z,100211.16
2023-04-11T22:42:34.808Z,100203.13
2023-04-11T22:45:04.473Z,100204.13
2023-04-11T22:47:34.448Z,100210.31
2023-04-11T22:50:03.778Z,100216.53
2023-04-11T22:52:31.959Z,100148.34
2023-04-11T22:55:00.034Z,100216.53
2023-04-11T22:57:28.129Z,100220.19
2023-04-11T22:59:56.230Z,100214.84
2023-04-11T23:02:27.516Z,100220.19
2023-04-11T23:04:55.809Z,100214.84
2023-04-11T23:07:26.073Z,100214.84
2023-04-11T23:09:54.155Z,100214.84
2023-04-11T23:12:22.255Z,100220.19
2023-04-11T23:14:50.474Z,100220.19
2023-04-11T23:17:18.612Z,100221.88
2023-04-11T23:19:49.335Z,100226.38
2023-04-11T23:22:18.480Z,100226.38
2023-04-11T23:24:47.029Z,100230.75
2023-04-11T23:27:15.057Z,100223.16
2023-04-11T23:29:43.069Z,100223.84
2023-04-11T23:32:11.219Z,100230.91
2023-04-11T23:34:39.822Z,100232.59
2023-04-11T23:37:09.378Z,100241.63
2023-04-11T23:39:37.912Z,100237.09
2023-04-11T23:42:06.320Z,100241.63
2023-04-11T23:44:34.512Z,100249.66
2023-04-11T23:47:02.558Z,100230.22
2023-04-11T23:49:30.577Z,100245.28
2023-04-11T23:51:58.609Z,100242.59
2023-04-11T23:54:30.285Z,100246.97
2023-04-11T23:56:58.626Z,100246.28
2023-04-11T23:59:27.212Z,100243.59
